sensor_id;sensor_type;location;lat;lon;timestamp;P1;durP1;ratioP1;P2;durP2;ratioP2
32611;SDS011;19030;49.478;8.986;2022-12-18T00:01:56;29.50;;;13.43;;
32611;SDS011;19030;49.478;8.986;2022-12-18T00:03:59;30.30;;;13.40;;
32611;SDS011;19030;49.478;8.986;2022-12-18T00:06:01;30.98;;;13.88;;
32611;SDS011;19030;49.478;8.986;2022-12-18T00:08:02;32.38;;;14.15;;
32611;SDS011;19030;49.478;8.986;2022-12-18T00:10:03;28.15;;;12.30;;
32611;SDS011;19030;49.478;8.986;2022-12-18T00:12:04;28.15;;;12.98;;
32611;SDS011;19030;49.478;8.986;2022-12-18T00:14:04;30.70;;;14.88;;
32611;SDS011;19030;49.478;8.986;2022-12-18T00:16:06;30.35;;;12.70;;
32611;SDS011;19030;49.478;8.986;2022-12-18T00:18:09;31.10;;;14.02;;
32611;SDS011;19030;49.478;8.986;2022-12-18T00:20:10;30.17;;;14.52;;
32611;SDS011;19030;49.478;8.986;2022-12-18T00:22:10;32.00;;;13.30;;
32611;SDS011;19030;49.478;8.986;2022-12-18T00:24:11;30.35;;;13.75;;
32611;SDS011;19030;49.478;8.986;2022-12-18T00:26:13;35.08;;;14.77;;
32611;SDS011;19030;49.478;8.986;2022-12-18T00:28:19;34.63;;;15.07;;
32611;SDS011;19030;49.478;8.986;2022-12-18T00:30:20;31.63;;;14.18;;
32611;SDS011;19030;49.478;8.986;2022-12-18T00:32:21;32.78;;;14.65;;
32611;SDS011;19030;49.478;8.986;2022-12-18T00:34:21;31.70;;;13.98;;
32611;SDS011;19030;49.478;8.986;2022-12-18T00:36:26;32.25;;;14.40;;
32611;SDS011;19030;49.478;8.986;2022-12-18T00:38:28;29.02;;;15.13;;
32611;SDS011;19030;49.478;8.986;2022-12-18T00:40:29;30.88;;;14.73;;
32611;SDS011;19030;49.478;8.986;2022-12-18T00:42:29;35.45;;;14.45;;
32611;SDS011;19030;49.478;8.986;2022-12-18T00:44:48;31.50;;;14.35;;
32611;SDS011;19030;49.478;8.986;2022-12-18T00:46:49;32.25;;;14.13;;
32611;SDS011;19030;49.478;8.986;2022-12-18T00:48:49;32.60;;;14.35;;
32611;SDS011;19030;49.478;8.986;2022-12-18T00:50:50;29.75;;;14.77;;
32611;SDS011;19030;49.478;8.986;2022-12-18T00:52:51;33.95;;;14.82;;
32611;SDS011;19030;49.478;8.986;2022-12-18T00:54:52;32.55;;;13.63;;
32611;SDS011;19030;49.478;8.986;2022-12-18T00:56:53;27.73;;;12.68;;
32611;SDS011;19030;49.478;8.986;2022-12-18T00:58:55;32.15;;;13.90;;
32611;SDS011;19030;49.478;8.986;2022-12-18T01:00:55;32.28;;;14.73;;
32611;SDS011;19030;49.478;8.986;2022-12-18T01:02:56;30.60;;;14.75;;
32611;SDS011;19030;49.478;8.986;2022-12-18T01:04:57;32.90;;;14.60;;
32611;SDS011;19030;49.478;8.986;2022-12-18T01:06:58;31.40;;;13.98;;
32611;SDS011;19030;49.478;8.986;2022-12-18T01:08:59;29.38;;;13.23;;
32611;SDS011;19030;49.478;8.986;2022-12-18T01:10:59;31.27;;;14.68;;
32611;SDS011;19030;49.478;8.986;2022-12-18T01:13:00;29.98;;;13.38;;
32611;SDS011;19030;49.478;8.986;2022-12-18T01:15:01;29.50;;;13.95;;
32611;SDS011;19030;49.478;8.986;2022-12-18T01:17:02;31.23;;;13.75;;
32611;SDS011;19030;49.478;8.986;2022-12-18T01:19:06;30.92;;;14.45;;
32611;SDS011;19030;49.478;8.986;2022-12-18T01:21:07;43.50;;;15.05;;
32611;SDS011;19030;49.478;8.986;2022-12-18T01:23:10;30.42;;;13.88;;
32611;SDS011;19030;49.478;8.986;2022-12-18T01:25:11;35.33;;;14.75;;
32611;SDS011;19030;49.478;8.986;2022-12-18T01:27:12;31.52;;;14.43;;
32611;SDS011;19030;49.478;8.986;2022-12-18T01:29:13;33.17;;;14.95;;
32611;SDS011;19030;49.478;8.986;2022-12-18T01:31:15;33.13;;;13.65;;
32611;SDS011;19030;49.478;8.986;2022-12-18T01:33:18;27.70;;;13.07;;
32611;SDS011;19030;49.478;8.986;2022-12-18T01:35:18;36.75;;;15.20;;
32611;SDS011;19030;49.478;8.986;2022-12-18T01:37:20;33.22;;;15.57;;
32611;SDS011;19030;49.478;8.986;2022-12-18T01:39:20;28.20;;;13.70;;
32611;SDS011;19030;49.478;8.986;2022-12-18T01:41:22;36.80;;;15.40;;
32611;SDS011;19030;49.478;8.986;2022-12-18T01:43:41;32.10;;;13.70;;
32611;SDS011;19030;49.478;8.986;2022-12-18T01:45:42;30.95;;;13.75;;
32611;SDS011;19030;49.478;8.986;2022-12-18T01:47:55;33.30;;;14.23;;
32611;SDS011;19030;49.478;8.986;2022-12-18T01:50:03;33.75;;;15.63;;
32611;SDS011;19030;49.478;8.986;2022-12-18T01:52:12;35.33;;;14.13;;
32611;SDS011;19030;49.478;8.986;2022-12-18T01:54:13;34.20;;;13.95;;
32611;SDS011;19030;49.478;8.986;2022-12-18T01:56:15;35.15;;;13.88;;
32611;SDS011;19030;49.478;8.986;2022-12-18T01:58:18;37.05;;;15.30;;
32611;SDS011;19030;49.478;8.986;2022-12-18T02:00:20;36.47;;;15.05;;
32611;SDS011;19030;49.478;8.986;2022-12-18T02:02:25;29.27;;;14.00;;
32611;SDS011;19030;49.478;8.986;2022-12-18T02:04:29;32.30;;;14.30;;
32611;SDS011;19030;49.478;8.986;2022-12-18T02:06:32;36.08;;;13.93;;
32611;SDS011;19030;49.478;8.986;2022-12-18T02:26:34;33.83;;;13.73;;
32611;SDS011;19030;49.478;8.986;2022-12-18T02:31:04;28.77;;;14.15;;
32611;SDS011;19030;49.478;8.986;2022-12-18T02:33:08;26.67;;;13.50;;
32611;SDS011;19030;49.478;8.986;2022-12-18T02:35:13;32.72;;;14.48;;
32611;SDS011;19030;49.478;8.986;2022-12-18T02:37:18;31.23;;;14.70;;
32611;SDS011;19030;49.478;8.986;2022-12-18T02:39:21;29.98;;;13.48;;
32611;SDS011;19030;49.478;8.986;2022-12-18T02:41:31;29.67;;;13.40;;
32611;SDS011;19030;49.478;8.986;2022-12-18T02:43:32;35.10;;;16.08;;
32611;SDS011;19030;49.478;8.986;2022-12-18T02:45:33;34.85;;;14.60;;
32611;SDS011;19030;49.478;8.986;2022-12-18T02:47:36;37.65;;;14.57;;
32611;SDS011;19030;49.478;8.986;2022-12-18T02:51:50;35.50;;;14.48;;
32611;SDS011;19030;49.478;8.986;2022-12-18T02:54:04;35.42;;;14.77;;
32611;SDS011;19030;49.478;8.986;2022-12-18T02:56:21;38.10;;;15.02;;
32611;SDS011;19030;49.478;8.986;2022-12-18T02:58:44;31.98;;;12.88;;
32611;SDS011;19030;49.478;8.986;2022-12-18T03:01:20;33.08;;;13.23;;
32611;SDS011;19030;49.478;8.986;2022-12-18T03:03:35;33.08;;;14.27;;
32611;SDS011;19030;49.478;8.986;2022-12-18T03:05:41;27.70;;;12.07;;
32611;SDS011;19030;49.478;8.986;2022-12-18T03:10:12;32.47;;;12.73;;
32611;SDS011;19030;49.478;8.986;2022-12-18T03:12:21;31.55;;;14.00;;
32611;SDS011;19030;49.478;8.986;2022-12-18T03:14:32;28.27;;;12.73;;
32611;SDS011;19030;49.478;8.986;2022-12-18T03:16:35;32.70;;;13.18;;
32611;SDS011;19030;49.478;8.986;2022-12-18T03:18:42;34.60;;;14.93;;
32611;SDS011;19030;49.478;8.986;2022-12-18T03:20:51;29.92;;;14.20;;
32611;SDS011;19030;49.478;8.986;2022-12-18T03:23:02;31.92;;;13.98;;
32611;SDS011;19030;49.478;8.986;2022-12-18T03:25:07;28.45;;;13.77;;
32611;SDS011;19030;49.478;8.986;2022-12-18T03:27:13;32.03;;;12.93;;
32611;SDS011;19030;49.478;8.986;2022-12-18T03:31:48;31.10;;;13.75;;
32611;SDS011;19030;49.478;8.986;2022-12-18T03:33:54;32.63;;;13.57;;
32611;SDS011;19030;49.478;8.986;2022-12-18T03:36:04;33.55;;;13.18;;
32611;SDS011;19030;49.478;8.986;2022-12-18T03:38:06;33.60;;;13.63;;
32611;SDS011;19030;49.478;8.986;2022-12-18T03:40:10;30.75;;;13.07;;
32611;SDS011;19030;49.478;8.986;2022-12-18T03:42:23;32.95;;;15.00;;
32611;SDS011;19030;49.478;8.986;2022-12-18T03:44:40;36.20;;;14.68;;
32611;SDS011;19030;49.478;8.986;2022-12-18T03:47:03;34.15;;;14.73;;
32611;SDS011;19030;49.478;8.986;2022-12-18T03:49:30;39.05;;;15.85;;
32611;SDS011;19030;49.478;8.986;2022-12-18T03:51:40;34.13;;;13.93;;
32611;SDS011;19030;49.478;8.986;2022-12-18T03:53:53;31.88;;;14.80;;
32611;SDS011;19030;49.478;8.986;2022-12-18T03:56:03;33.47;;;13.32;;
32611;SDS011;19030;49.478;8.986;2022-12-18T03:58:11;35.47;;;14.75;;
32611;SDS011;19030;49.478;8.986;2022-12-18T04:00:26;36.20;;;14.85;;
32611;SDS011;19030;49.478;8.986;2022-12-18T04:02:37;34.35;;;14.02;;
32611;SDS011;19030;49.478;8.986;2022-12-18T04:04:43;31.67;;;13.43;;
32611;SDS011;19030;49.478;8.986;2022-12-18T04:06:46;28.83;;;13.93;;
32611;SDS011;19030;49.478;8.986;2022-12-18T04:08:51;33.60;;;14.00;;
32611;SDS011;19030;49.478;8.986;2022-12-18T04:10:55;28.48;;;13.55;;
32611;SDS011;19030;49.478;8.986;2022-12-18T04:12:57;31.35;;;14.00;;
32611;SDS011;19030;49.478;8.986;2022-12-18T04:14:58;34.55;;;14.80;;
32611;SDS011;19030;49.478;8.986;2022-12-18T04:17:00;29.42;;;13.45;;
32611;SDS011;19030;49.478;8.986;2022-12-18T04:19:05;31.27;;;13.97;;
32611;SDS011;19030;49.478;8.986;2022-12-18T04:21:12;37.92;;;14.32;;
32611;SDS011;19030;49.478;8.986;2022-12-18T04:23:13;31.30;;;15.98;;
32611;SDS011;19030;49.478;8.986;2022-12-18T04:25:14;32.42;;;14.35;;
32611;SDS011;19030;49.478;8.986;2022-12-18T04:27:27;31.58;;;14.15;;
32611;SDS011;19030;49.478;8.986;2022-12-18T04:29:27;32.55;;;14.23;;
32611;SDS011;19030;49.478;8.986;2022-12-18T04:31:28;36.95;;;15.23;;
32611;SDS011;19030;49.478;8.986;2022-12-18T04:33:29;34.95;;;15.35;;
32611;SDS011;19030;49.478;8.986;2022-12-18T04:35:30;39.05;;;16.00;;
32611;SDS011;19030;49.478;8.986;2022-12-18T04:37:30;33.00;;;16.90;;
32611;SDS011;19030;49.478;8.986;2022-12-18T04:39:31;35.72;;;16.15;;
32611;SDS011;19030;49.478;8.986;2022-12-18T04:43:38;31.92;;;14.38;;
32611;SDS011;19030;49.478;8.986;2022-12-18T04:45:39;34.90;;;15.40;;
32611;SDS011;19030;49.478;8.986;2022-12-18T04:47:39;31.05;;;14.48;;
32611;SDS011;19030;49.478;8.986;2022-12-18T04:49:40;35.28;;;16.05;;
32611;SDS011;19030;49.478;8.986;2022-12-18T04:51:40;31.88;;;15.25;;
32611;SDS011;19030;49.478;8.986;2022-12-18T04:53:41;35.60;;;14.30;;
32611;SDS011;19030;49.478;8.986;2022-12-18T04:55:41;34.67;;;15.15;;
32611;SDS011;19030;49.478;8.986;2022-12-18T04:57:42;34.33;;;15.25;;
32611;SDS011;19030;49.478;8.986;2022-12-18T04:59:42;35.05;;;13.77;;
32611;SDS011;19030;49.478;8.986;2022-12-18T05:01:43;34.90;;;15.63;;
32611;SDS011;19030;49.478;8.986;2022-12-18T05:03:45;32.55;;;14.50;;
32611;SDS011;19030;49.478;8.986;2022-12-18T05:05:49;37.72;;;15.48;;
32611;SDS011;19030;49.478;8.986;2022-12-18T05:07:51;30.48;;;15.23;;
32611;SDS011;19030;49.478;8.986;2022-12-18T05:09:51;36.63;;;14.48;;
32611;SDS011;19030;49.478;8.986;2022-12-18T05:11:52;35.53;;;14.38;;
32611;SDS011;19030;49.478;8.986;2022-12-18T05:13:52;32.95;;;15.68;;
32611;SDS011;19030;49.478;8.986;2022-12-18T05:15:56;37.17;;;16.30;;
32611;SDS011;19030;49.478;8.986;2022-12-18T05:17:57;36.97;;;17.35;;
32611;SDS011;19030;49.478;8.986;2022-12-18T05:19:58;35.28;;;15.73;;
32611;SDS011;19030;49.478;8.986;2022-12-18T05:21:59;34.72;;;14.63;;
32611;SDS011;19030;49.478;8.986;2022-12-18T05:23:59;34.05;;;15.52;;
32611;SDS011;19030;49.478;8.986;2022-12-18T05:26:01;35.20;;;15.23;;
32611;SDS011;19030;49.478;8.986;2022-12-18T05:28:04;37.72;;;15.40;;
32611;SDS011;19030;49.478;8.986;2022-12-18T05:30:05;40.97;;;15.73;;
32611;SDS011;19030;49.478;8.986;2022-12-18T05:32:06;33.30;;;15.10;;
32611;SDS011;19030;49.478;8.986;2022-12-18T05:34:06;32.85;;;14.60;;
32611;SDS011;19030;49.478;8.986;2022-12-18T05:36:08;34.38;;;14.35;;
32611;SDS011;19030;49.478;8.986;2022-12-18T05:38:10;30.23;;;15.20;;
32611;SDS011;19030;49.478;8.986;2022-12-18T05:40:11;32.40;;;14.48;;
32611;SDS011;19030;49.478;8.986;2022-12-18T05:42:12;33.20;;;13.40;;
32611;SDS011;19030;49.478;8.986;2022-12-18T05:44:12;38.33;;;15.73;;
32611;SDS011;19030;49.478;8.986;2022-12-18T05:46:14;37.83;;;14.73;;
32611;SDS011;19030;49.478;8.986;2022-12-18T05:48:17;33.65;;;15.50;;
32611;SDS011;19030;49.478;8.986;2022-12-18T05:50:18;38.22;;;17.33;;
32611;SDS011;19030;49.478;8.986;2022-12-18T05:52:19;38.10;;;17.70;;
32611;SDS011;19030;49.478;8.986;2022-12-18T05:54:19;37.85;;;15.63;;
32611;SDS011;19030;49.478;8.986;2022-12-18T05:56:21;36.00;;;15.23;;
32611;SDS011;19030;49.478;8.986;2022-12-18T05:58:22;41.55;;;17.90;;
32611;SDS011;19030;49.478;8.986;2022-12-18T06:00:23;37.85;;;14.85;;
32611;SDS011;19030;49.478;8.986;2022-12-18T06:02:23;30.60;;;13.68;;
32611;SDS011;19030;49.478;8.986;2022-12-18T06:04:25;39.30;;;15.23;;
32611;SDS011;19030;49.478;8.986;2022-12-18T06:06:27;36.42;;;15.60;;
32611;SDS011;19030;49.478;8.986;2022-12-18T06:08:28;37.55;;;14.30;;
32611;SDS011;19030;49.478;8.986;2022-12-18T06:10:29;33.03;;;15.18;;
32611;SDS011;19030;49.478;8.986;2022-12-18T06:12:30;36.08;;;14.32;;
32611;SDS011;19030;49.478;8.986;2022-12-18T06:14:30;36.90;;;14.75;;
32611;SDS011;19030;49.478;8.986;2022-12-18T06:16:31;37.22;;;15.45;;
32611;SDS011;19030;49.478;8.986;2022-12-18T06:18:32;38.08;;;14.73;;
32611;SDS011;19030;49.478;8.986;2022-12-18T06:20:33;30.10;;;13.82;;
32611;SDS011;19030;49.478;8.986;2022-12-18T06:22:33;38.13;;;14.63;;
32611;SDS011;19030;49.478;8.986;2022-12-18T06:24:34;32.33;;;13.88;;
32611;SDS011;19030;49.478;8.986;2022-12-18T06:26:37;36.72;;;14.45;;
32611;SDS011;19030;49.478;8.986;2022-12-18T06:28:38;34.25;;;15.35;;
32611;SDS011;19030;49.478;8.986;2022-12-18T06:30:39;33.33;;;14.93;;
32611;SDS011;19030;49.478;8.986;2022-12-18T06:32:39;37.92;;;16.48;;
32611;SDS011;19030;49.478;8.986;2022-12-18T06:34:40;32.67;;;15.00;;
32611;SDS011;19030;49.478;8.986;2022-12-18T06:36:41;32.65;;;16.08;;
32611;SDS011;19030;49.478;8.986;2022-12-18T06:38:42;36.55;;;16.52;;
32611;SDS011;19030;49.478;8.986;2022-12-18T06:40:43;33.75;;;16.17;;
32611;SDS011;19030;49.478;8.986;2022-12-18T06:42:44;36.88;;;16.02;;
32611;SDS011;19030;49.478;8.986;2022-12-18T06:44:44;35.60;;;15.48;;
32611;SDS011;19030;49.478;8.986;2022-12-18T06:46:45;35.63;;;15.52;;
32611;SDS011;19030;49.478;8.986;2022-12-18T06:48:49;34.22;;;14.07;;
32611;SDS011;19030;49.478;8.986;2022-12-18T06:50:50;30.13;;;12.95;;
32611;SDS011;19030;49.478;8.986;2022-12-18T06:52:51;37.03;;;15.73;;
32611;SDS011;19030;49.478;8.986;2022-12-18T06:54:51;35.88;;;15.15;;
32611;SDS011;19030;49.478;8.986;2022-12-18T06:56:52;34.55;;;15.77;;
32611;SDS011;19030;49.478;8.986;2022-12-18T06:58:52;36.03;;;15.77;;
32611;SDS011;19030;49.478;8.986;2022-12-18T07:00:53;37.28;;;15.90;;
32611;SDS011;19030;49.478;8.986;2022-12-18T07:02:54;33.95;;;14.85;;
32611;SDS011;19030;49.478;8.986;2022-12-18T07:04:55;34.75;;;15.38;;
32611;SDS011;19030;49.478;8.986;2022-12-18T07:06:56;35.80;;;16.05;;
32611;SDS011;19030;49.478;8.986;2022-12-18T07:08:57;37.60;;;17.30;;
32611;SDS011;19030;49.478;8.986;2022-12-18T07:10:57;37.90;;;16.15;;
32611;SDS011;19030;49.478;8.986;2022-12-18T07:12:58;41.42;;;17.90;;
32611;SDS011;19030;49.478;8.986;2022-12-18T07:14:59;34.33;;;15.82;;
32611;SDS011;19030;49.478;8.986;2022-12-18T07:16:59;37.30;;;16.10;;
32611;SDS011;19030;49.478;8.986;2022-12-18T07:19:00;38.45;;;16.75;;
32611;SDS011;19030;49.478;8.986;2022-12-18T07:21:08;41.05;;;16.17;;
32611;SDS011;19030;49.478;8.986;2022-12-18T07:23:10;38.47;;;17.83;;
32611;SDS011;19030;49.478;8.986;2022-12-18T07:25:11;40.63;;;18.45;;
32611;SDS011;19030;49.478;8.986;2022-12-18T07:27:12;36.65;;;16.08;;
32611;SDS011;19030;49.478;8.986;2022-12-18T07:29:12;39.78;;;17.63;;
32611;SDS011;19030;49.478;8.986;2022-12-18T07:31:14;38.58;;;18.02;;
32611;SDS011;19030;49.478;8.986;2022-12-18T07:33:17;38.75;;;17.40;;
32611;SDS011;19030;49.478;8.986;2022-12-18T07:35:17;43.92;;;20.10;;
32611;SDS011;19030;49.478;8.986;2022-12-18T07:37:18;41.90;;;16.45;;
32611;SDS011;19030;49.478;8.986;2022-12-18T07:39:19;42.63;;;16.98;;
32611;SDS011;19030;49.478;8.986;2022-12-18T07:41:19;40.90;;;17.98;;
32611;SDS011;19030;49.478;8.986;2022-12-18T07:43:20;47.85;;;19.98;;
32611;SDS011;19030;49.478;8.986;2022-12-18T07:45:21;46.80;;;22.75;;
32611;SDS011;19030;49.478;8.986;2022-12-18T07:47:21;48.30;;;20.73;;
32611;SDS011;19030;49.478;8.986;2022-12-18T07:49:22;46.15;;;19.92;;
32611;SDS011;19030;49.478;8.986;2022-12-18T07:51:23;36.53;;;17.10;;
32611;SDS011;19030;49.478;8.986;2022-12-18T07:53:23;44.63;;;18.13;;
32611;SDS011;19030;49.478;8.986;2022-12-18T07:55:24;39.05;;;16.92;;
32611;SDS011;19030;49.478;8.986;2022-12-18T07:57:26;39.35;;;17.25;;
32611;SDS011;19030;49.478;8.986;2022-12-18T07:59:26;50.45;;;21.40;;
32611;SDS011;19030;49.478;8.986;2022-12-18T08:01:27;47.97;;;23.38;;
32611;SDS011;19030;49.478;8.986;2022-12-18T08:03:27;51.83;;;22.90;;
32611;SDS011;19030;49.478;8.986;2022-12-18T08:05:28;51.67;;;24.05;;
32611;SDS011;19030;49.478;8.986;2022-12-18T08:07:29;53.05;;;25.08;;
32611;SDS011;19030;49.478;8.986;2022-12-18T08:09:29;60.55;;;27.25;;
32611;SDS011;19030;49.478;8.986;2022-12-18T08:11:30;56.35;;;25.67;;
32611;SDS011;19030;49.478;8.986;2022-12-18T08:13:30;65.88;;;31.77;;
32611;SDS011;19030;49.478;8.986;2022-12-18T08:15:31;61.10;;;29.58;;
32611;SDS011;19030;49.478;8.986;2022-12-18T08:17:32;93.30;;;37.75;;
32611;SDS011;19030;49.478;8.986;2022-12-18T08:19:33;60.08;;;24.85;;
32611;SDS011;19030;49.478;8.986;2022-12-18T08:21:33;59.45;;;27.17;;
32611;SDS011;19030;49.478;8.986;2022-12-18T08:23:34;73.85;;;29.73;;
32611;SDS011;19030;49.478;8.986;2022-12-18T08:25:34;55.40;;;24.75;;
32611;SDS011;19030;49.478;8.986;2022-12-18T08:27:35;51.30;;;21.50;;
32611;SDS011;19030;49.478;8.986;2022-12-18T08:29:36;50.72;;;22.50;;
32611;SDS011;19030;49.478;8.986;2022-12-18T08:31:37;43.95;;;20.05;;
32611;SDS011;19030;49.478;8.986;2022-12-18T08:33:38;45.80;;;22.20;;
32611;SDS011;19030;49.478;8.986;2022-12-18T08:35:39;51.58;;;21.67;;
32611;SDS011;19030;49.478;8.986;2022-12-18T08:37:39;39.97;;;20.15;;
32611;SDS011;19030;49.478;8.986;2022-12-18T08:39:40;45.88;;;23.92;;
32611;SDS011;19030;49.478;8.986;2022-12-18T08:41:40;43.80;;;24.02;;
32611;SDS011;19030;49.478;8.986;2022-12-18T08:43:41;45.10;;;23.08;;
32611;SDS011;19030;49.478;8.986;2022-12-18T08:46:00;43.35;;;21.23;;
32611;SDS011;19030;49.478;8.986;2022-12-18T08:48:01;42.17;;;19.95;;
32611;SDS011;19030;49.478;8.986;2022-12-18T08:50:02;34.90;;;18.63;;
32611;SDS011;19030;49.478;8.986;2022-12-18T08:52:02;36.17;;;17.92;;
32611;SDS011;19030;49.478;8.986;2022-12-18T08:54:03;36.28;;;18.40;;
32611;SDS011;19030;49.478;8.986;2022-12-18T08:56:05;38.83;;;18.92;;
32611;SDS011;19030;49.478;8.986;2022-12-18T08:58:06;38.00;;;19.55;;
32611;SDS011;19030;49.478;8.986;2022-12-18T09:00:06;42.70;;;20.55;;
32611;SDS011;19030;49.478;8.986;2022-12-18T09:02:09;44.75;;;22.02;;
32611;SDS011;19030;49.478;8.986;2022-12-18T09:04:11;44.40;;;21.80;;
32611;SDS011;19030;49.478;8.986;2022-12-18T09:06:13;46.22;;;24.67;;
32611;SDS011;19030;49.478;8.986;2022-12-18T09:08:15;48.40;;;24.42;;
32611;SDS011;19030;49.478;8.986;2022-12-18T09:10:16;49.78;;;24.67;;
32611;SDS011;19030;49.478;8.986;2022-12-18T09:12:16;42.65;;;22.88;;
32611;SDS011;19030;49.478;8.986;2022-12-18T09:14:17;44.80;;;22.30;;
32611;SDS011;19030;49.478;8.986;2022-12-18T09:16:18;48.78;;;21.73;;
32611;SDS011;19030;49.478;8.986;2022-12-18T09:18:20;44.10;;;24.00;;
32611;SDS011;19030;49.478;8.986;2022-12-18T09:20:22;42.70;;;24.50;;
32611;SDS011;19030;49.478;8.986;2022-12-18T09:22:22;55.05;;;26.98;;
32611;SDS011;19030;49.478;8.986;2022-12-18T09:24:23;45.85;;;23.55;;
32611;SDS011;19030;49.478;8.986;2022-12-18T09:26:23;37.03;;;19.92;;
32611;SDS011;19030;49.478;8.986;2022-12-18T09:28:25;46.50;;;23.90;;
32611;SDS011;19030;49.478;8.986;2022-12-18T09:30:26;44.10;;;23.88;;
32611;SDS011;19030;49.478;8.986;2022-12-18T09:32:26;47.28;;;24.42;;
32611;SDS011;19030;49.478;8.986;2022-12-18T09:34:27;46.50;;;23.23;;
32611;SDS011;19030;49.478;8.986;2022-12-18T09:36:28;47.97;;;28.33;;
32611;SDS011;19030;49.478;8.986;2022-12-18T09:38:31;44.20;;;21.25;;
32611;SDS011;19030;49.478;8.986;2022-12-18T09:40:36;45.80;;;22.58;;
32611;SDS011;19030;49.478;8.986;2022-12-18T09:42:41;45.78;;;22.75;;
32611;SDS011;19030;49.478;8.986;2022-12-18T09:44:52;42.33;;;23.00;;
32611;SDS011;19030;49.478;8.986;2022-12-18T09:46:59;76.22;;;40.72;;
32611;SDS011;19030;49.478;8.986;2022-12-18T09:49:21;55.78;;;29.50;;
32611;SDS011;19030;49.478;8.986;2022-12-18T09:51:31;76.15;;;43.25;;
32611;SDS011;19030;49.478;8.986;2022-12-18T09:53:38;48.13;;;23.50;;
32611;SDS011;19030;49.478;8.986;2022-12-18T09:55:45;45.50;;;22.63;;
32611;SDS011;19030;49.478;8.986;2022-12-18T09:57:48;46.53;;;24.30;;
32611;SDS011;19030;49.478;8.986;2022-12-18T09:59:54;44.90;;;23.80;;
32611;SDS011;19030;49.478;8.986;2022-12-18T10:01:58;40.47;;;21.95;;
32611;SDS011;19030;49.478;8.986;2022-12-18T10:04:01;44.58;;;23.98;;
32611;SDS011;19030;49.478;8.986;2022-12-18T10:06:11;42.10;;;21.85;;
32611;SDS011;19030;49.478;8.986;2022-12-18T10:12:55;40.83;;;22.95;;
32611;SDS011;19030;49.478;8.986;2022-12-18T10:15:28;44.63;;;21.55;;
32611;SDS011;19030;49.478;8.986;2022-12-18T10:20:24;43.65;;;21.48;;
32611;SDS011;19030;49.478;8.986;2022-12-18T10:22:38;41.88;;;22.90;;
32611;SDS011;19030;49.478;8.986;2022-12-18T10:24:51;42.75;;;21.40;;
32611;SDS011;19030;49.478;8.986;2022-12-18T10:26:54;42.22;;;22.25;;
32611;SDS011;19030;49.478;8.986;2022-12-18T10:28:59;38.13;;;22.20;;
32611;SDS011;19030;49.478;8.986;2022-12-18T10:31:01;45.42;;;22.60;;
32611;SDS011;19030;49.478;8.986;2022-12-18T10:33:02;45.10;;;22.02;;
32611;SDS011;19030;49.478;8.986;2022-12-18T10:35:03;45.17;;;22.52;;
32611;SDS011;19030;49.478;8.986;2022-12-18T10:37:05;43.15;;;21.42;;
32611;SDS011;19030;49.478;8.986;2022-12-18T10:41:25;51.50;;;25.70;;
32611;SDS011;19030;49.478;8.986;2022-12-18T10:43:37;49.05;;;22.17;;
32611;SDS011;19030;49.478;8.986;2022-12-18T10:45:39;39.55;;;19.73;;
32611;SDS011;19030;49.478;8.986;2022-12-18T10:47:43;49.20;;;24.70;;
32611;SDS011;19030;49.478;8.986;2022-12-18T10:49:50;43.50;;;21.48;;
32611;SDS011;19030;49.478;8.986;2022-12-18T10:52:15;47.33;;;23.95;;
32611;SDS011;19030;49.478;8.986;2022-12-18T10:54:24;43.50;;;22.50;;
32611;SDS011;19030;49.478;8.986;2022-12-18T10:56:27;47.20;;;21.20;;
32611;SDS011;19030;49.478;8.986;2022-12-18T10:58:36;57.45;;;28.38;;
32611;SDS011;19030;49.478;8.986;2022-12-18T11:00:38;47.63;;;22.77;;
32611;SDS011;19030;49.478;8.986;2022-12-18T11:02:39;44.03;;;22.20;;
32611;SDS011;19030;49.478;8.986;2022-12-18T11:04:49;45.75;;;22.42;;
32611;SDS011;19030;49.478;8.986;2022-12-18T11:06:55;47.05;;;22.67;;
32611;SDS011;19030;49.478;8.986;2022-12-18T11:09:05;43.38;;;22.10;;
32611;SDS011;19030;49.478;8.986;2022-12-18T11:11:22;52.53;;;23.15;;
32611;SDS011;19030;49.478;8.986;2022-12-18T11:13:24;50.25;;;22.25;;
32611;SDS011;19030;49.478;8.986;2022-12-18T11:15:27;44.97;;;22.08;;
32611;SDS011;19030;49.478;8.986;2022-12-18T11:17:34;47.40;;;21.73;;
32611;SDS011;19030;49.478;8.986;2022-12-18T11:19:36;44.45;;;21.27;;
32611;SDS011;19030;49.478;8.986;2022-12-18T11:21:39;47.47;;;22.23;;
32611;SDS011;19030;49.478;8.986;2022-12-18T11:23:46;41.55;;;21.25;;
32611;SDS011;19030;49.478;8.986;2022-12-18T11:25:51;48.70;;;24.13;;
32611;SDS011;19030;49.478;8.986;2022-12-18T11:28:00;47.30;;;22.08;;
32611;SDS011;19030;49.478;8.986;2022-12-18T11:34:37;50.87;;;24.73;;
32611;SDS011;19030;49.478;8.986;2022-12-18T11:36:39;45.03;;;22.25;;
32611;SDS011;19030;49.478;8.986;2022-12-18T11:38:44;46.60;;;23.00;;
32611;SDS011;19030;49.478;8.986;2022-12-18T11:40:48;43.60;;;22.58;;
32611;SDS011;19030;49.478;8.986;2022-12-18T11:43:10;46.58;;;21.95;;
32611;SDS011;19030;49.478;8.986;2022-12-18T11:45:23;47.33;;;22.92;;
32611;SDS011;19030;49.478;8.986;2022-12-18T11:47:43;43.83;;;22.20;;
32611;SDS011;19030;49.478;8.986;2022-12-18T11:50:05;42.95;;;20.35;;
32611;SDS011;19030;49.478;8.986;2022-12-18T11:52:19;45.28;;;21.23;;
32611;SDS011;19030;49.478;8.986;2022-12-18T11:54:24;49.05;;;22.90;;
32611;SDS011;19030;49.478;8.986;2022-12-18T11:56:43;44.45;;;21.63;;
32611;SDS011;19030;49.478;8.986;2022-12-18T11:59:15;47.47;;;22.02;;
32611;SDS011;19030;49.478;8.986;2022-12-18T12:06:10;50.78;;;24.38;;
32611;SDS011;19030;49.478;8.986;2022-12-18T12:10:47;84.47;;;39.42;;
32611;SDS011;19030;49.478;8.986;2022-12-18T12:17:58;53.05;;;26.08;;
32611;SDS011;19030;49.478;8.986;2022-12-18T12:20:42;51.50;;;26.60;;
32611;SDS011;19030;49.478;8.986;2022-12-18T12:24:55;53.28;;;24.25;;
32611;SDS011;19030;49.478;8.986;2022-12-18T12:29:30;46.67;;;22.73;;
32611;SDS011;19030;49.478;8.986;2022-12-18T12:34:04;49.28;;;24.92;;
32611;SDS011;19030;49.478;8.986;2022-12-18T12:39:01;48.97;;;26.83;;
32611;SDS011;19030;49.478;8.986;2022-12-18T12:41:08;47.60;;;22.40;;
32611;SDS011;19030;49.478;8.986;2022-12-18T12:43:42;47.50;;;21.98;;
32611;SDS011;19030;49.478;8.986;2022-12-18T12:46:06;50.28;;;23.50;;
32611;SDS011;19030;49.478;8.986;2022-12-18T12:48:16;51.53;;;23.02;;
32611;SDS011;19030;49.478;8.986;2022-12-18T12:50:20;48.95;;;22.65;;
32611;SDS011;19030;49.478;8.986;2022-12-18T12:52:28;47.72;;;22.35;;
32611;SDS011;19030;49.478;8.986;2022-12-18T12:54:33;46.50;;;21.65;;
32611;SDS011;19030;49.478;8.986;2022-12-18T13:01:13;42.72;;;21.38;;
32611;SDS011;19030;49.478;8.986;2022-12-18T13:08:07;52.13;;;23.33;;
32611;SDS011;19030;49.478;8.986;2022-12-18T13:10:14;52.83;;;23.65;;
32611;SDS011;19030;49.478;8.986;2022-12-18T13:12:22;44.15;;;21.60;;
32611;SDS011;19030;49.478;8.986;2022-12-18T13:14:41;51.63;;;24.70;;
32611;SDS011;19030;49.478;8.986;2022-12-18T13:16:42;48.80;;;23.30;;
32611;SDS011;19030;49.478;8.986;2022-12-18T13:18:48;48.65;;;23.92;;
32611;SDS011;19030;49.478;8.986;2022-12-18T13:25:00;51.63;;;21.88;;
32611;SDS011;19030;49.478;8.986;2022-12-18T13:27:04;49.97;;;22.27;;